EDT,Max TemperatureF,Mean TemperatureF,Min TemperatureF,Max Dew PointF,MeanDew PointF,Min DewpointF,Max Humidity, Mean Humidity, Min Humidity, Max Sea Level PressureIn, Mean Sea Level PressureIn, Min Sea Level PressureIn, Max VisibilityMiles, Mean VisibilityMiles, Min VisibilityMiles, Max Wind SpeedMPH, Mean Wind SpeedMPH, Max Gust SpeedMPH,PrecipitationIn, CloudCover, Events, WindDirDegrees
2013-9-1,84,76,68,70,66,64,88,77,55,29.89,29.84,29.77,10,7,0,8,5,,0.21,5,,208
2013-9-2,69,68,66,66,65,64,94,88,83,29.88,29.81,29.74,10,4,0,9,3,,0.95,8,Thunderstorm,91
2013-9-3,80,70,60,66,63,55,94,77,58,29.77,29.73,29.70,10,8,0,9,2,,0.00,6,,236
2013-9-4,80,66,53,55,53,46,94,65,34,29.89,29.83,29.77,10,10,9,15,6,23,0.00,0,,269
2013-9-5,66,54,42,57,49,37,88,72,37,30.15,29.97,29.86,10,10,10,13,3,,0.00,5,,5
2013-9-6,68,52,35,45,38,30,93,64,32,30.23,30.15,30.05,10,10,10,13,3,18,0.00,0,,249
2013-9-7,78,63,48,54,46,41,88,57,30,30.05,29.94,29.82,10,10,10,14,7,20,0.00,2,,239
2013-9-8,71,56,42,54,44,36,81,56,34,30.08,29.84,29.72,10,10,10,20,8,29,0.00,3,,286
2013-9-9,69,51,33,45,39,28,93,64,32,30.21,30.15,30.08,10,10,10,13,3,17,0.00,0,,218
2013-9-10,71,60,50,64,56,45,94,80,67,30.14,30.07,30.02,10,9,3,14,6,17,0.04,5,,218
2013-9-11,93,80,66,73,69,63,88,72,44,30.05,29.99,29.91,10,7,1,15,7,24,0.12,3,Thunderstorm,225
2013-9-12,82,72,62,72,65,59,94,86,65,29.94,29.81,29.69,10,8,1,15,4,26,1.92,4,Thunderstorm,207
2013-9-13,69,63,55,64,60,52,94,87,78,29.74,29.64,29.59,10,9,3,16,4,21,1.35,7,,299
2013-9-14,69,60,48,54,50,45,88,72,49,30.03,29.88,29.74,10,10,10,14,5,16,0.00,5,,288
2013-9-15,69,54,39,48,44,36,93,66,38,30.14,30.07,30.02,10,9,1,14,3,17,0.00,0,,233
2013-9-16,66,55,44,52,45,32,82,66,49,30.26,30.06,29.99,10,10,10,16,7,20,0.00,3,,295
2013-9-17,64,50,35,45,35,28,87,62,37,30.42,30.34,30.27,10,10,10,14,6,22,0.00,0,,332
2013-9-18,73,53,33,50,40,28,93,67,31,30.31,30.21,30.10,10,10,10,12,2,,0.00,0,,239
2013-9-19,75,56,37,52,44,32,87,68,36,30.13,30.08,30.03,10,10,8,9,2,,0.00,0,,211
2013-9-20,73,58,42,54,46,37,93,70,41,30.11,30.05,30.02,10,9,1,8,3,,0.00,0,,110
2013-9-21,71,60,50,61,54,46,94,81,60,30.03,29.91,29.75,10,6,0,10,3,17,0.00,6,,184
2013-9-22,71,61,51,63,53,39,94,70,43,29.79,29.67,29.60,10,10,5,15,8,22,0.50,5,,242
2013-9-23,60,48,37,41,37,34,87,63,45,29.97,29.88,29.79,10,10,10,15,7,21,0.00,1,,285
2013-9-24,62,47,32,43,36,27,87,68,42,29.96,29.89,29.82,10,10,7,14,4,18,0.00,3,,309
2013-9-25,60,48,35,45,40,30,93,71,52,29.99,29.91,29.87,10,10,5,12,3,,0.00,4,,337
2013-9-26,66,52,39,48,44,36,88,70,49,30.14,30.05,30.00,10,10,8,13,3,,0.00,4,,6
2013-9-27,68,56,44,52,46,39,87,68,49,30.26,30.20,30.14,10,10,6,12,6,,0.00,5,,344
2013-9-28,71,56,41,52,45,37,93,70,41,30.34,30.30,30.26,10,10,9,9,3,,0.00,1,,49
2013-9-29,66,50,35,52,41,32,100,77,45,30.27,30.20,30.14,,,,7,1,,0.00,4,,158
2013-9-30,64,50,35,50,42,32,100,79,56,30.14,30.05,29.98,,,,7,1,,0.00,2,,137